sensor_id;sensor_type;location;lat;lon;timestamp;P1;durP1;ratioP1;P2;durP2;ratioP2
12812;SDS011;6471;50.932;6.934;2023-05-10T02:12:35;7.73;;;5.67;;
12812;SDS011;6471;50.932;6.934;2023-05-10T02:18:31;7.53;;;5.80;;
12812;SDS011;6471;50.932;6.934;2023-05-10T02:20:58;7.13;;;5.20;;
12812;SDS011;6471;50.932;6.934;2023-05-10T02:23:28;7.97;;;6.07;;
12812;SDS011;6471;50.932;6.934;2023-05-10T02:25:54;7.23;;;5.33;;
12812;SDS011;6471;50.932;6.934;2023-05-10T02:28:23;7.97;;;6.53;;
12812;SDS011;6471;50.932;6.934;2023-05-10T02:31:16;7.33;;;5.83;;
12812;SDS011;6471;50.932;6.934;2023-05-10T02:33:42;6.80;;;5.83;;
12812;SDS011;6471;50.932;6.934;2023-05-10T02:36:09;5.80;;;4.87;;
12812;SDS011;6471;50.932;6.934;2023-05-10T02:38:36;6.93;;;5.43;;
12812;SDS011;6471;50.932;6.934;2023-05-10T02:41:02;5.73;;;4.73;;
12812;SDS011;6471;50.932;6.934;2023-05-10T02:43:31;6.60;;;4.80;;
12812;SDS011;6471;50.932;6.934;2023-05-10T02:45:58;7.57;;;4.70;;
12812;SDS011;6471;50.932;6.934;2023-05-10T02:48:24;6.70;;;4.47;;
12812;SDS011;6471;50.932;6.934;2023-05-10T05:32:37;12.07;;;7.37;;
12812;SDS011;6471;50.932;6.934;2023-05-10T05:35:07;10.63;;;7.90;;
12812;SDS011;6471;50.932;6.934;2023-05-10T05:37:45;12.50;;;7.80;;
12812;SDS011;6471;50.932;6.934;2023-05-10T05:40:18;8.93;;;7.10;;
12812;SDS011;6471;50.932;6.934;2023-05-10T05:43:25;8.43;;;6.40;;
12812;SDS011;6471;50.932;6.934;2023-05-10T05:46:07;10.23;;;7.17;;
12812;SDS011;6471;50.932;6.934;2023-05-10T05:49:10;9.87;;;6.80;;
12812;SDS011;6471;50.932;6.934;2023-05-10T05:51:37;8.70;;;6.73;;
12812;SDS011;6471;50.932;6.934;2023-05-10T05:54:03;7.97;;;6.27;;
12812;SDS011;6471;50.932;6.934;2023-05-10T05:56:29;10.63;;;7.00;;
12812;SDS011;6471;50.932;6.934;2023-05-10T05:58:55;9.77;;;6.60;;
12812;SDS011;6471;50.932;6.934;2023-05-10T06:01:21;12.03;;;7.20;;
12812;SDS011;6471;50.932;6.934;2023-05-10T06:03:50;8.70;;;6.87;;
12812;SDS011;6471;50.932;6.934;2023-05-10T06:06:17;10.30;;;6.07;;
12812;SDS011;6471;50.932;6.934;2023-05-10T06:08:46;9.87;;;6.10;;
12812;SDS011;6471;50.932;6.934;2023-05-10T06:11:12;9.17;;;6.30;;
12812;SDS011;6471;50.932;6.934;2023-05-10T06:13:38;11.30;;;6.77;;
12812;SDS011;6471;50.932;6.934;2023-05-10T06:16:05;9.17;;;6.20;;
12812;SDS011;6471;50.932;6.934;2023-05-10T06:18:47;9.33;;;6.57;;
12812;SDS011;6471;50.932;6.934;2023-05-10T06:24:25;8.80;;;6.43;;
12812;SDS011;6471;50.932;6.934;2023-05-10T06:29:42;10.83;;;7.43;;
12812;SDS011;6471;50.932;6.934;2023-05-10T06:42:03;9.13;;;6.30;;
12812;SDS011;6471;50.932;6.934;2023-05-10T06:44:37;8.57;;;5.90;;
12812;SDS011;6471;50.932;6.934;2023-05-10T06:47:12;9.63;;;6.13;;
12812;SDS011;6471;50.932;6.934;2023-05-10T06:52:49;6.57;;;5.50;;
12812;SDS011;6471;50.932;6.934;2023-05-10T07:01:41;10.47;;;7.37;;
12812;SDS011;6471;50.932;6.934;2023-05-10T07:04:12;11.57;;;7.47;;
12812;SDS011;6471;50.932;6.934;2023-05-10T07:06:47;14.67;;;9.00;;
12812;SDS011;6471;50.932;6.934;2023-05-10T07:21:15;12.43;;;8.87;;
12812;SDS011;6471;50.932;6.934;2023-05-10T07:56:31;12.80;;;8.00;;
12812;SDS011;6471;50.932;6.934;2023-05-10T07:59:15;12.20;;;9.10;;
12812;SDS011;6471;50.932;6.934;2023-05-10T08:01:51;14.33;;;9.70;;
12812;SDS011;6471;50.932;6.934;2023-05-10T08:10:25;10.50;;;7.17;;
12812;SDS011;6471;50.932;6.934;2023-05-10T08:12:51;10.43;;;6.57;;
12812;SDS011;6471;50.932;6.934;2023-05-10T08:15:17;8.57;;;6.00;;
12812;SDS011;6471;50.932;6.934;2023-05-10T08:17:43;7.57;;;5.90;;
12812;SDS011;6471;50.932;6.934;2023-05-10T08:20:15;8.70;;;5.40;;
12812;SDS011;6471;50.932;6.934;2023-05-10T08:22:44;6.50;;;4.90;;
12812;SDS011;6471;50.932;6.934;2023-05-10T08:25:10;7.23;;;4.90;;
12812;SDS011;6471;50.932;6.934;2023-05-10T08:27:36;5.83;;;4.60;;
12812;SDS011;6471;50.932;6.934;2023-05-10T08:30:03;6.07;;;5.00;;
12812;SDS011;6471;50.932;6.934;2023-05-10T08:32:31;5.47;;;4.50;;
12812;SDS011;6471;50.932;6.934;2023-05-10T08:35:06;6.50;;;3.80;;
12812;SDS011;6471;50.932;6.934;2023-05-10T08:37:32;4.87;;;4.20;;
12812;SDS011;6471;50.932;6.934;2023-05-10T08:39:59;4.80;;;4.23;;
12812;SDS011;6471;50.932;6.934;2023-05-10T08:42:25;6.23;;;4.87;;
12812;SDS011;6471;50.932;6.934;2023-05-10T08:44:53;6.90;;;4.37;;
12812;SDS011;6471;50.932;6.934;2023-05-10T08:47:19;6.67;;;5.10;;
12812;SDS011;6471;50.932;6.934;2023-05-10T08:49:47;7.03;;;4.60;;
12812;SDS011;6471;50.932;6.934;2023-05-10T08:52:16;5.73;;;4.57;;
12812;SDS011;6471;50.932;6.934;2023-05-10T08:54:43;6.20;;;5.13;;
12812;SDS011;6471;50.932;6.934;2023-05-10T08:57:14;6.10;;;4.63;;
12812;SDS011;6471;50.932;6.934;2023-05-10T08:59:41;6.23;;;4.30;;
12812;SDS011;6471;50.932;6.934;2023-05-10T09:02:09;6.20;;;4.37;;
12812;SDS011;6471;50.932;6.934;2023-05-10T09:04:35;5.47;;;4.43;;
12812;SDS011;6471;50.932;6.934;2023-05-10T09:07:01;5.83;;;4.70;;
12812;SDS011;6471;50.932;6.934;2023-05-10T09:09:28;6.30;;;5.00;;
12812;SDS011;6471;50.932;6.934;2023-05-10T09:11:54;7.13;;;4.77;;
12812;SDS011;6471;50.932;6.934;2023-05-10T09:14:21;6.40;;;4.67;;
12812;SDS011;6471;50.932;6.934;2023-05-10T09:16:49;6.57;;;4.70;;
12812;SDS011;6471;50.932;6.934;2023-05-10T09:19:15;5.27;;;3.77;;
12812;SDS011;6471;50.932;6.934;2023-05-10T09:21:41;5.07;;;4.00;;
12812;SDS011;6471;50.932;6.934;2023-05-10T09:24:07;6.33;;;4.80;;
12812;SDS011;6471;50.932;6.934;2023-05-10T09:26:39;5.73;;;4.50;;
12812;SDS011;6471;50.932;6.934;2023-05-10T09:29:15;6.33;;;5.00;;
12812;SDS011;6471;50.932;6.934;2023-05-10T09:31:48;6.20;;;4.97;;
12812;SDS011;6471;50.932;6.934;2023-05-10T09:34:22;5.20;;;4.37;;
12812;SDS011;6471;50.932;6.934;2023-05-10T09:36:55;5.37;;;4.77;;
12812;SDS011;6471;50.932;6.934;2023-05-10T09:39:29;8.90;;;6.77;;
12812;SDS011;6471;50.932;6.934;2023-05-10T09:41:56;9.10;;;6.90;;
12812;SDS011;6471;50.932;6.934;2023-05-10T09:44:28;7.47;;;5.70;;
12812;SDS011;6471;50.932;6.934;2023-05-10T09:46:57;8.43;;;6.23;;
12812;SDS011;6471;50.932;6.934;2023-05-10T09:49:23;10.50;;;6.90;;
12812;SDS011;6471;50.932;6.934;2023-05-10T09:52:11;9.87;;;5.93;;
12812;SDS011;6471;50.932;6.934;2023-05-10T09:54:36;6.67;;;5.47;;
12812;SDS011;6471;50.932;6.934;2023-05-10T09:57:04;10.13;;;7.10;;
12812;SDS011;6471;50.932;6.934;2023-05-10T09:59:32;8.47;;;6.93;;
12812;SDS011;6471;50.932;6.934;2023-05-10T10:02:00;11.03;;;6.97;;
12812;SDS011;6471;50.932;6.934;2023-05-10T10:04:29;9.80;;;6.67;;
12812;SDS011;6471;50.932;6.934;2023-05-10T10:07:02;10.07;;;7.10;;
12812;SDS011;6471;50.932;6.934;2023-05-10T10:09:39;8.60;;;6.17;;
12812;SDS011;6471;50.932;6.934;2023-05-10T10:12:14;9.57;;;7.03;;
12812;SDS011;6471;50.932;6.934;2023-05-10T10:14:45;9.77;;;6.93;;
12812;SDS011;6471;50.932;6.934;2023-05-10T10:17:11;8.93;;;5.90;;
12812;SDS011;6471;50.932;6.934;2023-05-10T10:20:01;7.60;;;5.60;;
12812;SDS011;6471;50.932;6.934;2023-05-10T10:22:38;8.73;;;5.57;;
12812;SDS011;6471;50.932;6.934;2023-05-10T10:25:17;8.97;;;5.77;;
12812;SDS011;6471;50.932;6.934;2023-05-10T10:35:52;7.53;;;5.13;;
12812;SDS011;6471;50.932;6.934;2023-05-10T10:38:19;8.77;;;5.47;;
12812;SDS011;6471;50.932;6.934;2023-05-10T10:40:48;9.53;;;5.80;;
12812;SDS011;6471;50.932;6.934;2023-05-10T10:43:24;7.60;;;5.60;;
12812;SDS011;6471;50.932;6.934;2023-05-10T10:48:38;8.17;;;5.60;;
12812;SDS011;6471;50.932;6.934;2023-05-10T10:54:20;9.83;;;6.47;;
12812;SDS011;6471;50.932;6.934;2023-05-10T10:57:13;9.30;;;6.07;;
12812;SDS011;6471;50.932;6.934;2023-05-10T10:59:45;7.93;;;5.77;;
12812;SDS011;6471;50.932;6.934;2023-05-10T11:05:25;9.60;;;5.53;;
12812;SDS011;6471;50.932;6.934;2023-05-10T11:07:54;8.63;;;5.57;;
12812;SDS011;6471;50.932;6.934;2023-05-10T11:10:30;7.93;;;5.27;;
12812;SDS011;6471;50.932;6.934;2023-05-10T11:13:00;5.80;;;4.27;;
12812;SDS011;6471;50.932;6.934;2023-05-10T11:15:39;6.60;;;4.50;;
12812;SDS011;6471;50.932;6.934;2023-05-10T11:18:31;6.57;;;4.50;;
12812;SDS011;6471;50.932;6.934;2023-05-10T11:20:59;7.73;;;4.57;;
12812;SDS011;6471;50.932;6.934;2023-05-10T11:23:32;3.70;;;3.33;;
12812;SDS011;6471;50.932;6.934;2023-05-10T11:26:08;4.20;;;3.33;;
12812;SDS011;6471;50.932;6.934;2023-05-10T11:28:44;3.97;;;3.00;;
12812;SDS011;6471;50.932;6.934;2023-05-10T11:31:22;3.57;;;2.90;;
12812;SDS011;6471;50.932;6.934;2023-05-10T11:33:55;4.30;;;3.20;;
12812;SDS011;6471;50.932;6.934;2023-05-10T11:36:47;3.77;;;2.73;;
12812;SDS011;6471;50.932;6.934;2023-05-10T11:39:45;2.97;;;2.53;;
12812;SDS011;6471;50.932;6.934;2023-05-10T11:42:17;4.23;;;2.90;;
12812;SDS011;6471;50.932;6.934;2023-05-10T11:47:47;4.00;;;2.70;;
12812;SDS011;6471;50.932;6.934;2023-05-10T11:50:37;3.13;;;2.50;;
12812;SDS011;6471;50.932;6.934;2023-05-10T11:53:03;3.77;;;2.80;;
12812;SDS011;6471;50.932;6.934;2023-05-10T11:55:29;3.03;;;2.30;;
12812;SDS011;6471;50.932;6.934;2023-05-10T11:58:12;2.60;;;2.23;;
12812;SDS011;6471;50.932;6.934;2023-05-10T12:00:38;3.60;;;2.17;;
12812;SDS011;6471;50.932;6.934;2023-05-10T12:03:04;2.30;;;2.00;;
12812;SDS011;6471;50.932;6.934;2023-05-10T12:05:37;2.27;;;2.07;;
12812;SDS011;6471;50.932;6.934;2023-05-10T12:08:13;2.60;;;2.33;;
12812;SDS011;6471;50.932;6.934;2023-05-10T12:10:39;2.90;;;2.10;;
12812;SDS011;6471;50.932;6.934;2023-05-10T12:13:05;3.27;;;2.47;;
12812;SDS011;6471;50.932;6.934;2023-05-10T12:15:34;2.53;;;2.10;;
12812;SDS011;6471;50.932;6.934;2023-05-10T12:18:03;3.30;;;1.90;;
12812;SDS011;6471;50.932;6.934;2023-05-10T12:20:30;2.20;;;2.00;;
12812;SDS011;6471;50.932;6.934;2023-05-10T12:23:04;2.00;;;1.80;;
12812;SDS011;6471;50.932;6.934;2023-05-10T12:25:33;2.00;;;1.73;;
12812;SDS011;6471;50.932;6.934;2023-05-10T12:28:02;3.60;;;2.20;;
12812;SDS011;6471;50.932;6.934;2023-05-10T12:30:32;2.47;;;1.90;;
12812;SDS011;6471;50.932;6.934;2023-05-10T12:33:00;2.90;;;1.80;;
12812;SDS011;6471;50.932;6.934;2023-05-10T12:35:29;1.87;;;1.53;;
12812;SDS011;6471;50.932;6.934;2023-05-10T12:37:58;1.70;;;1.60;;
12812;SDS011;6471;50.932;6.934;2023-05-10T12:40:33;1.93;;;1.73;;
12812;SDS011;6471;50.932;6.934;2023-05-10T12:43:04;2.10;;;1.90;;
12812;SDS011;6471;50.932;6.934;2023-05-10T12:48:30;1.60;;;1.50;;
12812;SDS011;6471;50.932;6.934;2023-05-10T12:51:03;1.70;;;1.60;;
12812;SDS011;6471;50.932;6.934;2023-05-10T12:53:29;2.03;;;1.60;;
12812;SDS011;6471;50.932;6.934;2023-05-10T12:55:55;1.67;;;1.50;;
12812;SDS011;6471;50.932;6.934;2023-05-10T12:58:27;1.90;;;1.60;;
12812;SDS011;6471;50.932;6.934;2023-05-10T13:00:53;1.80;;;1.70;;
12812;SDS011;6471;50.932;6.934;2023-05-10T13:03:22;2.30;;;1.67;;
12812;SDS011;6471;50.932;6.934;2023-05-10T13:05:48;1.63;;;1.53;;
12812;SDS011;6471;50.932;6.934;2023-05-10T13:08:20;1.60;;;1.40;;
12812;SDS011;6471;50.932;6.934;2023-05-10T13:10:46;1.67;;;1.40;;
12812;SDS011;6471;50.932;6.934;2023-05-10T13:13:12;1.97;;;1.77;;
12812;SDS011;6471;50.932;6.934;2023-05-10T13:15:38;1.73;;;1.57;;
12812;SDS011;6471;50.932;6.934;2023-05-10T13:18:04;2.03;;;1.40;;
12812;SDS011;6471;50.932;6.934;2023-05-10T13:20:30;2.20;;;1.60;;
12812;SDS011;6471;50.932;6.934;2023-05-10T13:22:56;3.10;;;1.97;;
12812;SDS011;6471;50.932;6.934;2023-05-10T13:25:23;2.63;;;2.17;;
12812;SDS011;6471;50.932;6.934;2023-05-10T13:27:49;2.10;;;1.90;;
12812;SDS011;6471;50.932;6.934;2023-05-10T13:30:15;1.67;;;1.57;;
12812;SDS011;6471;50.932;6.934;2023-05-10T13:32:41;1.67;;;1.40;;
12812;SDS011;6471;50.932;6.934;2023-05-10T13:35:07;1.47;;;1.33;;
12812;SDS011;6471;50.932;6.934;2023-05-10T13:37:33;1.70;;;1.50;;
12812;SDS011;6471;50.932;6.934;2023-05-10T13:40:02;1.53;;;1.43;;
12812;SDS011;6471;50.932;6.934;2023-05-10T13:42:29;2.93;;;1.50;;
12812;SDS011;6471;50.932;6.934;2023-05-10T13:44:56;1.73;;;1.43;;
12812;SDS011;6471;50.932;6.934;2023-05-10T13:47:22;2.43;;;1.40;;
12812;SDS011;6471;50.932;6.934;2023-05-10T13:49:48;1.37;;;1.27;;
12812;SDS011;6471;50.932;6.934;2023-05-10T13:52:14;2.77;;;1.40;;
12812;SDS011;6471;50.932;6.934;2023-05-10T13:54:40;2.23;;;1.33;;
12812;SDS011;6471;50.932;6.934;2023-05-10T13:57:07;1.53;;;1.13;;
12812;SDS011;6471;50.932;6.934;2023-05-10T13:59:33;1.10;;;1.00;;
12812;SDS011;6471;50.932;6.934;2023-05-10T14:02:00;1.07;;;0.90;;
12812;SDS011;6471;50.932;6.934;2023-05-10T14:04:29;1.20;;;1.10;;
12812;SDS011;6471;50.932;6.934;2023-05-10T14:06:56;1.40;;;1.00;;
12812;SDS011;6471;50.932;6.934;2023-05-10T14:09:22;1.57;;;1.20;;
12812;SDS011;6471;50.932;6.934;2023-05-10T14:11:49;1.70;;;1.00;;
12812;SDS011;6471;50.932;6.934;2023-05-10T14:14:15;1.93;;;0.90;;
12812;SDS011;6471;50.932;6.934;2023-05-10T14:16:44;1.10;;;1.00;;
12812;SDS011;6471;50.932;6.934;2023-05-10T14:19:11;1.93;;;1.10;;
12812;SDS011;6471;50.932;6.934;2023-05-10T14:21:37;1.80;;;1.10;;
12812;SDS011;6471;50.932;6.934;2023-05-10T14:27:36;0.93;;;0.83;;
12812;SDS011;6471;50.932;6.934;2023-05-10T14:30:10;0.97;;;0.90;;
12812;SDS011;6471;50.932;6.934;2023-05-10T14:32:36;1.30;;;1.03;;
12812;SDS011;6471;50.932;6.934;2023-05-10T14:35:08;1.87;;;1.03;;
12812;SDS011;6471;50.932;6.934;2023-05-10T14:37:37;1.50;;;1.10;;
12812;SDS011;6471;50.932;6.934;2023-05-10T14:40:04;1.73;;;1.23;;
12812;SDS011;6471;50.932;6.934;2023-05-10T14:42:37;1.97;;;1.40;;
12812;SDS011;6471;50.932;6.934;2023-05-10T14:45:18;1.33;;;1.13;;
12812;SDS011;6471;50.932;6.934;2023-05-10T14:47:44;3.73;;;3.03;;
12812;SDS011;6471;50.932;6.934;2023-05-10T14:50:13;8.27;;;5.07;;
12812;SDS011;6471;50.932;6.934;2023-05-10T14:52:39;2.17;;;1.97;;
12812;SDS011;6471;50.932;6.934;2023-05-10T14:55:14;1.90;;;1.70;;
12812;SDS011;6471;50.932;6.934;2023-05-10T14:57:43;1.30;;;1.20;;
12812;SDS011;6471;50.932;6.934;2023-05-10T15:00:11;1.90;;;1.30;;
12812;SDS011;6471;50.932;6.934;2023-05-10T15:02:40;1.17;;;1.07;;
12812;SDS011;6471;50.932;6.934;2023-05-10T15:05:07;1.13;;;1.03;;
12812;SDS011;6471;50.932;6.934;2023-05-10T15:07:33;2.17;;;1.50;;
12812;SDS011;6471;50.932;6.934;2023-05-10T15:09:59;1.83;;;1.50;;
12812;SDS011;6471;50.932;6.934;2023-05-10T15:12:25;1.47;;;1.37;;
12812;SDS011;6471;50.932;6.934;2023-05-10T15:14:54;1.33;;;1.20;;
12812;SDS011;6471;50.932;6.934;2023-05-10T15:17:23;2.43;;;1.27;;
12812;SDS011;6471;50.932;6.934;2023-05-10T15:19:50;1.63;;;1.20;;
12812;SDS011;6471;50.932;6.934;2023-05-10T15:22:16;2.40;;;1.30;;
12812;SDS011;6471;50.932;6.934;2023-05-10T15:24:42;1.30;;;1.20;;
12812;SDS011;6471;50.932;6.934;2023-05-10T15:27:08;1.23;;;1.13;;
12812;SDS011;6471;50.932;6.934;2023-05-10T15:29:35;1.47;;;1.30;;
12812;SDS011;6471;50.932;6.934;2023-05-10T15:32:04;2.07;;;1.40;;
12812;SDS011;6471;50.932;6.934;2023-05-10T15:34:30;2.83;;;1.50;;
12812;SDS011;6471;50.932;6.934;2023-05-10T15:36:56;1.60;;;1.40;;
12812;SDS011;6471;50.932;6.934;2023-05-10T15:39:22;1.77;;;1.40;;
12812;SDS011;6471;50.932;6.934;2023-05-10T15:41:48;1.60;;;1.40;;
12812;SDS011;6471;50.932;6.934;2023-05-10T15:44:14;1.87;;;1.60;;
12812;SDS011;6471;50.932;6.934;2023-05-10T15:46:40;1.80;;;1.23;;
12812;SDS011;6471;50.932;6.934;2023-05-10T15:49:06;1.47;;;1.30;;
12812;SDS011;6471;50.932;6.934;2023-05-10T15:51:35;1.50;;;1.40;;
12812;SDS011;6471;50.932;6.934;2023-05-10T15:54:01;2.23;;;1.60;;
12812;SDS011;6471;50.932;6.934;2023-05-10T15:56:28;1.50;;;1.40;;
12812;SDS011;6471;50.932;6.934;2023-05-10T15:58:54;3.00;;;1.70;;
12812;SDS011;6471;50.932;6.934;2023-05-10T16:01:20;1.83;;;1.47;;
12812;SDS011;6471;50.932;6.934;2023-05-10T16:03:46;1.80;;;1.50;;
12812;SDS011;6471;50.932;6.934;2023-05-10T16:06:12;2.30;;;1.60;;
12812;SDS011;6471;50.932;6.934;2023-05-10T16:08:39;1.87;;;1.60;;
12812;SDS011;6471;50.932;6.934;2023-05-10T16:11:06;1.73;;;1.43;;
12812;SDS011;6471;50.932;6.934;2023-05-10T16:13:33;1.70;;;1.60;;
12812;SDS011;6471;50.932;6.934;2023-05-10T16:16:01;1.50;;;1.30;;
12812;SDS011;6471;50.932;6.934;2023-05-10T16:18:27;2.30;;;1.50;;
12812;SDS011;6471;50.932;6.934;2023-05-10T16:20:53;3.33;;;1.87;;
12812;SDS011;6471;50.932;6.934;2023-05-10T16:23:20;2.17;;;1.60;;
12812;SDS011;6471;50.932;6.934;2023-05-10T16:25:46;2.77;;;1.40;;
12812;SDS011;6471;50.932;6.934;2023-05-10T16:28:12;2.00;;;1.50;;
12812;SDS011;6471;50.932;6.934;2023-05-10T16:30:41;1.90;;;1.40;;
12812;SDS011;6471;50.932;6.934;2023-05-10T16:33:25;3.23;;;1.70;;
12812;SDS011;6471;50.932;6.934;2023-05-10T16:35:55;2.67;;;1.70;;
12812;SDS011;6471;50.932;6.934;2023-05-10T16:38:40;2.00;;;1.47;;
12812;SDS011;6471;50.932;6.934;2023-05-10T16:41:06;1.93;;;1.50;;
12812;SDS011;6471;50.932;6.934;2023-05-10T16:43:32;2.13;;;1.60;;
12812;SDS011;6471;50.932;6.934;2023-05-10T16:45:58;1.77;;;1.33;;
12812;SDS011;6471;50.932;6.934;2023-05-10T16:48:24;1.70;;;1.40;;
12812;SDS011;6471;50.932;6.934;2023-05-10T16:50:50;3.33;;;1.70;;
12812;SDS011;6471;50.932;6.934;2023-05-10T16:53:20;2.93;;;1.70;;
12812;SDS011;6471;50.932;6.934;2023-05-10T16:55:46;2.10;;;1.50;;
12812;SDS011;6471;50.932;6.934;2023-05-10T16:58:12;2.47;;;1.77;;
12812;SDS011;6471;50.932;6.934;2023-05-10T17:00:38;2.90;;;1.80;;
12812;SDS011;6471;50.932;6.934;2023-05-10T17:03:05;1.83;;;1.50;;
12812;SDS011;6471;50.932;6.934;2023-05-10T17:05:31;2.60;;;1.90;;
12812;SDS011;6471;50.932;6.934;2023-05-10T17:07:57;2.50;;;2.10;;
12812;SDS011;6471;50.932;6.934;2023-05-10T17:10:23;2.97;;;1.83;;
12812;SDS011;6471;50.932;6.934;2023-05-10T17:12:49;2.20;;;1.60;;
12812;SDS011;6471;50.932;6.934;2023-05-10T17:15:17;2.63;;;1.80;;
12812;SDS011;6471;50.932;6.934;2023-05-10T17:17:45;2.63;;;1.73;;
12812;SDS011;6471;50.932;6.934;2023-05-10T17:20:11;2.63;;;1.90;;
12812;SDS011;6471;50.932;6.934;2023-05-10T17:22:37;2.73;;;1.70;;
12812;SDS011;6471;50.932;6.934;2023-05-10T17:25:03;1.80;;;1.63;;
12812;SDS011;6471;50.932;6.934;2023-05-10T17:27:30;1.97;;;1.70;;
12812;SDS011;6471;50.932;6.934;2023-05-10T17:29:56;4.23;;;2.57;;
12812;SDS011;6471;50.932;6.934;2023-05-10T17:32:22;2.97;;;2.20;;
12812;SDS011;6471;50.932;6.934;2023-05-10T17:34:48;2.87;;;1.90;;
12812;SDS011;6471;50.932;6.934;2023-05-10T17:37:17;2.53;;;1.87;;
12812;SDS011;6471;50.932;6.934;2023-05-10T17:39:49;2.17;;;1.80;;
12812;SDS011;6471;50.932;6.934;2023-05-10T17:45:18;2.57;;;2.30;;
12812;SDS011;6471;50.932;6.934;2023-05-10T17:47:53;3.97;;;2.50;;
12812;SDS011;6471;50.932;6.934;2023-05-10T17:55:45;3.20;;;2.50;;
12812;SDS011;6471;50.932;6.934;2023-05-10T17:58:44;2.90;;;2.17;;
12812;SDS011;6471;50.932;6.934;2023-05-10T18:01:33;3.13;;;2.20;;
12812;SDS011;6471;50.932;6.934;2023-05-10T18:04:26;3.13;;;2.10;;
12812;SDS011;6471;50.932;6.934;2023-05-10T18:07:03;3.37;;;2.00;;
12812;SDS011;6471;50.932;6.934;2023-05-10T18:10:11;2.40;;;2.10;;
12812;SDS011;6471;50.932;6.934;2023-05-10T18:12:38;2.20;;;1.90;;
12812;SDS011;6471;50.932;6.934;2023-05-10T18:15:04;1.60;;;1.37;;
12812;SDS011;6471;50.932;6.934;2023-05-10T18:17:31;1.67;;;1.43;;
12812;SDS011;6471;50.932;6.934;2023-05-10T18:19:59;2.57;;;1.60;;
12812;SDS011;6471;50.932;6.934;2023-05-10T18:22:28;3.90;;;2.00;;
12812;SDS011;6471;50.932;6.934;2023-05-10T18:25:17;2.70;;;2.00;;
12812;SDS011;6471;50.932;6.934;2023-05-10T18:27:54;2.67;;;1.90;;
12812;SDS011;6471;50.932;6.934;2023-05-10T18:30:21;2.67;;;1.83;;
12812;SDS011;6471;50.932;6.934;2023-05-10T18:32:47;2.60;;;1.73;;
12812;SDS011;6471;50.932;6.934;2023-05-10T18:35:16;3.83;;;1.70;;
12812;SDS011;6471;50.932;6.934;2023-05-10T18:37:42;3.23;;;1.80;;
12812;SDS011;6471;50.932;6.934;2023-05-10T18:40:16;3.30;;;2.57;;
12812;SDS011;6471;50.932;6.934;2023-05-10T18:42:45;3.03;;;2.53;;
12812;SDS011;6471;50.932;6.934;2023-05-10T18:45:17;2.67;;;2.27;;
12812;SDS011;6471;50.932;6.934;2023-05-10T18:47:43;4.40;;;3.30;;
12812;SDS011;6471;50.932;6.934;2023-05-10T18:50:10;4.03;;;3.27;;
12812;SDS011;6471;50.932;6.934;2023-05-10T18:52:37;5.47;;;3.90;;
12812;SDS011;6471;50.932;6.934;2023-05-10T18:55:03;6.57;;;4.07;;
12812;SDS011;6471;50.932;6.934;2023-05-10T18:57:29;5.87;;;4.20;;
12812;SDS011;6471;50.932;6.934;2023-05-10T18:59:55;6.87;;;5.13;;
12812;SDS011;6471;50.932;6.934;2023-05-10T19:02:21;6.03;;;4.50;;
12812;SDS011;6471;50.932;6.934;2023-05-10T19:04:50;5.57;;;4.23;;
12812;SDS011;6471;50.932;6.934;2023-05-10T19:07:17;4.87;;;3.83;;
12812;SDS011;6471;50.932;6.934;2023-05-10T19:09:46;5.43;;;4.13;;
12812;SDS011;6471;50.932;6.934;2023-05-10T19:12:12;4.87;;;4.00;;
12812;SDS011;6471;50.932;6.934;2023-05-10T19:14:38;5.70;;;4.83;;
12812;SDS011;6471;50.932;6.934;2023-05-10T19:17:04;9.07;;;6.53;;
12812;SDS011;6471;50.932;6.934;2023-05-10T19:19:30;10.30;;;7.00;;
12812;SDS011;6471;50.932;6.934;2023-05-10T19:21:57;7.87;;;5.37;;
12812;SDS011;6471;50.932;6.934;2023-05-10T19:24:23;6.63;;;5.20;;
12812;SDS011;6471;50.932;6.934;2023-05-10T19:26:52;5.17;;;4.17;;
12812;SDS011;6471;50.932;6.934;2023-05-10T19:29:26;5.87;;;4.80;;
12812;SDS011;6471;50.932;6.934;2023-05-10T19:31:52;6.30;;;5.30;;
12812;SDS011;6471;50.932;6.934;2023-05-10T19:34:18;8.97;;;6.97;;
12812;SDS011;6471;50.932;6.934;2023-05-10T19:36:45;10.17;;;6.93;;
12812;SDS011;6471;50.932;6.934;2023-05-10T19:39:29;8.10;;;6.43;;
12812;SDS011;6471;50.932;6.934;2023-05-10T19:42:16;6.87;;;5.50;;
12812;SDS011;6471;50.932;6.934;2023-05-10T19:44:54;9.90;;;7.27;;
12812;SDS011;6471;50.932;6.934;2023-05-10T19:47:23;9.57;;;7.63;;
12812;SDS011;6471;50.932;6.934;2023-05-10T19:49:58;8.77;;;6.70;;
12812;SDS011;6471;50.932;6.934;2023-05-10T19:52:24;10.07;;;7.10;;
12812;SDS011;6471;50.932;6.934;2023-05-10T19:54:54;11.40;;;8.90;;
12812;SDS011;6471;50.932;6.934;2023-05-10T19:57:20;15.50;;;11.27;;
12812;SDS011;6471;50.932;6.934;2023-05-10T19:59:46;15.57;;;11.37;;
12812;SDS011;6471;50.932;6.934;2023-05-10T20:02:12;13.20;;;9.53;;
12812;SDS011;6471;50.932;6.934;2023-05-10T20:04:38;10.97;;;8.00;;
12812;SDS011;6471;50.932;6.934;2023-05-10T20:07:04;12.03;;;8.33;;
12812;SDS011;6471;50.932;6.934;2023-05-10T20:09:33;15.53;;;11.43;;
12812;SDS011;6471;50.932;6.934;2023-05-10T20:11:59;17.47;;;12.07;;
12812;SDS011;6471;50.932;6.934;2023-05-10T20:14:26;15.13;;;10.80;;
12812;SDS011;6471;50.932;6.934;2023-05-10T20:17:04;10.63;;;8.00;;
12812;SDS011;6471;50.932;6.934;2023-05-10T20:19:30;13.23;;;9.20;;
12812;SDS011;6471;50.932;6.934;2023-05-10T20:21:56;12.73;;;8.17;;
12812;SDS011;6471;50.932;6.934;2023-05-10T20:24:23;11.10;;;7.43;;
12812;SDS011;6471;50.932;6.934;2023-05-10T20:26:49;10.53;;;7.20;;
12812;SDS011;6471;50.932;6.934;2023-05-10T20:29:15;9.43;;;7.17;;
12812;SDS011;6471;50.932;6.934;2023-05-10T20:31:52;10.93;;;7.90;;
12812;SDS011;6471;50.932;6.934;2023-05-10T20:34:18;9.17;;;7.23;;
12812;SDS011;6471;50.932;6.934;2023-05-10T20:36:44;9.03;;;6.80;;
12812;SDS011;6471;50.932;6.934;2023-05-10T20:39:11;10.13;;;7.03;;
12812;SDS011;6471;50.932;6.934;2023-05-10T20:41:37;9.40;;;7.30;;
12812;SDS011;6471;50.932;6.934;2023-05-10T20:44:05;9.23;;;6.83;;
12812;SDS011;6471;50.932;6.934;2023-05-10T20:46:31;9.80;;;7.67;;
12812;SDS011;6471;50.932;6.934;2023-05-10T20:48:58;10.63;;;7.97;;
12812;SDS011;6471;50.932;6.934;2023-05-10T20:51:24;11.63;;;8.37;;
12812;SDS011;6471;50.932;6.934;2023-05-10T20:53:53;10.27;;;7.07;;
12812;SDS011;6471;50.932;6.934;2023-05-10T20:56:21;9.20;;;7.10;;
12812;SDS011;6471;50.932;6.934;2023-05-10T20:58:49;9.53;;;6.90;;
12812;SDS011;6471;50.932;6.934;2023-05-10T21:01:18;8.40;;;6.53;;
12812;SDS011;6471;50.932;6.934;2023-05-10T21:03:45;13.93;;;10.20;;
12812;SDS011;6471;50.932;6.934;2023-05-10T21:06:13;30.50;;;20.30;;
12812;SDS011;6471;50.932;6.934;2023-05-10T21:08:48;17.37;;;13.00;;
12812;SDS011;6471;50.932;6.934;2023-05-10T21:11:14;20.13;;;13.57;;
12812;SDS011;6471;50.932;6.934;2023-05-10T21:13:41;14.03;;;10.83;;
12812;SDS011;6471;50.932;6.934;2023-05-10T21:16:07;12.40;;;9.23;;
12812;SDS011;6471;50.932;6.934;2023-05-10T21:18:33;11.43;;;9.27;;
12812;SDS011;6471;50.932;6.934;2023-05-10T21:21:00;10.67;;;7.53;;
12812;SDS011;6471;50.932;6.934;2023-05-10T21:23:26;12.27;;;9.07;;
12812;SDS011;6471;50.932;6.934;2023-05-10T21:25:55;15.60;;;10.17;;
12812;SDS011;6471;50.932;6.934;2023-05-10T21:28:24;17.37;;;11.57;;
12812;SDS011;6471;50.932;6.934;2023-05-10T21:30:53;14.20;;;9.47;;
12812;SDS011;6471;50.932;6.934;2023-05-10T21:33:19;11.77;;;8.57;;
12812;SDS011;6471;50.932;6.934;2023-05-10T21:35:45;12.70;;;8.17;;
12812;SDS011;6471;50.932;6.934;2023-05-10T21:38:12;11.37;;;7.63;;
12812;SDS011;6471;50.932;6.934;2023-05-10T21:40:40;10.80;;;7.30;;
12812;SDS011;6471;50.932;6.934;2023-05-10T21:43:07;9.87;;;7.53;;
12812;SDS011;6471;50.932;6.934;2023-05-10T21:45:33;11.03;;;8.07;;
12812;SDS011;6471;50.932;6.934;2023-05-10T21:48:00;9.77;;;7.37;;
12812;SDS011;6471;50.932;6.934;2023-05-10T21:50:27;12.60;;;9.67;;
12812;SDS011;6471;50.932;6.934;2023-05-10T21:52:54;13.27;;;9.03;;
12812;SDS011;6471;50.932;6.934;2023-05-10T21:55:21;11.10;;;8.30;;
12812;SDS011;6471;50.932;6.934;2023-05-10T21:57:48;10.33;;;8.10;;
12812;SDS011;6471;50.932;6.934;2023-05-10T22:00:17;10.93;;;7.97;;